sensor_id;sensor_type;location;lat;lon;timestamp;pressure;altitude;pressure_sealevel;temperature;humidity
53858;BME280;39763;51.188;6.690;2023-02-28T00:00:08;102645.78;;;4.37;53.35
53858;BME280;39763;51.188;6.690;2023-02-28T00:01:41;102644.91;;;4.36;53.41
53858;BME280;39763;51.188;6.690;2023-02-28T00:03:13;102644.00;;;4.34;53.47
53858;BME280;39763;51.188;6.690;2023-02-28T00:04:45;102642.28;;;4.35;53.10
53858;BME280;39763;51.188;6.690;2023-02-28T00:06:25;102645.72;;;4.34;53.16
53858;BME280;39763;51.188;6.690;2023-02-28T00:07:57;102634.50;;;4.36;53.27
53858;BME280;39763;51.188;6.690;2023-02-28T00:09:30;102641.47;;;4.37;53.46
53858;BME280;39763;51.188;6.690;2023-02-28T00:11:02;102648.44;;;4.38;52.89
53858;BME280;39763;51.188;6.690;2023-02-28T00:12:34;102642.47;;;4.42;52.81
53858;BME280;39763;51.188;6.690;2023-02-28T00:14:05;102640.78;;;4.46;53.22
53858;BME280;39763;51.188;6.690;2023-02-28T00:15:37;102637.38;;;4.48;52.92
53858;BME280;39763;51.188;6.690;2023-02-28T00:17:09;102634.84;;;4.51;53.15
53858;BME280;39763;51.188;6.690;2023-02-28T00:18:40;102649.66;;;4.54;52.72
53858;BME280;39763;51.188;6.690;2023-02-28T00:20:12;102638.44;;;4.56;52.85
53858;BME280;39763;51.188;6.690;2023-02-28T00:21:44;102647.19;;;4.60;52.62
53858;BME280;39763;51.188;6.690;2023-02-28T00:23:16;102641.16;;;4.63;52.98
53858;BME280;39763;51.188;6.690;2023-02-28T00:24:49;102642.06;;;4.65;52.75
53858;BME280;39763;51.188;6.690;2023-02-28T00:26:20;102643.84;;;4.66;52.86
53858;BME280;39763;51.188;6.690;2023-02-28T00:27:53;102642.97;;;4.65;52.40
53858;BME280;39763;51.188;6.690;2023-02-28T00:29:24;102641.19;;;4.64;52.28
53858;BME280;39763;51.188;6.690;2023-02-28T00:30:56;102637.72;;;4.64;52.26
53858;BME280;39763;51.188;6.690;2023-02-28T00:32:28;102649.88;;;4.65;52.38
53858;BME280;39763;51.188;6.690;2023-02-28T00:34:01;102641.22;;;4.66;52.63
53858;BME280;39763;51.188;6.690;2023-02-28T00:35:33;102642.97;;;4.65;52.42
53858;BME280;39763;51.188;6.690;2023-02-28T00:37:04;102644.69;;;4.65;52.30
53858;BME280;39763;51.188;6.690;2023-02-28T00:38:37;102641.22;;;4.66;52.34
53858;BME280;39763;51.188;6.690;2023-02-28T00:40:10;102645.53;;;4.64;52.30
53858;BME280;39763;51.188;6.690;2023-02-28T00:41:43;102645.50;;;4.62;52.74
53858;BME280;39763;51.188;6.690;2023-02-28T00:43:14;102651.53;;;4.61;52.80
53858;BME280;39763;51.188;6.690;2023-02-28T00:44:48;102648.09;;;4.62;52.66
53858;BME280;39763;51.188;6.690;2023-02-28T00:46:20;102644.69;;;4.65;52.61
53858;BME280;39763;51.188;6.690;2023-02-28T00:47:52;102644.72;;;4.66;52.71
53858;BME280;39763;51.188;6.690;2023-02-28T00:49:23;102647.44;;;4.71;52.70
53858;BME280;39763;51.188;6.690;2023-02-28T00:50:55;102644.06;;;4.75;52.79
53858;BME280;39763;51.188;6.690;2023-02-28T00:52:27;102638.84;;;4.76;52.34
53858;BME280;39763;51.188;6.690;2023-02-28T00:53:58;102632.00;;;4.80;52.62
53858;BME280;39763;51.188;6.690;2023-02-28T00:55:31;102635.56;;;4.83;52.58
53858;BME280;39763;51.188;6.690;2023-02-28T00:57:03;102635.59;;;4.85;52.55
53858;BME280;39763;51.188;6.690;2023-02-28T00:58:35;102633.06;;;4.88;52.22
53858;BME280;39763;51.188;6.690;2023-02-28T01:00:08;102637.38;;;4.87;52.37
53858;BME280;39763;51.188;6.690;2023-02-28T01:01:40;102635.66;;;4.88;52.41
53858;BME280;39763;51.188;6.690;2023-02-28T01:03:12;102640.78;;;4.85;52.42
53858;BME280;39763;51.188;6.690;2023-02-28T01:04:44;102644.25;;;4.84;52.54
53858;BME280;39763;51.188;6.690;2023-02-28T01:06:16;102647.66;;;4.81;52.15
53858;BME280;39763;51.188;6.690;2023-02-28T01:07:47;102635.41;;;4.77;52.42
53858;BME280;39763;51.188;6.690;2023-02-28T01:09:19;102638.88;;;4.78;51.95
53858;BME280;39763;51.188;6.690;2023-02-28T01:10:52;102652.75;;;4.77;52.56
53858;BME280;39763;51.188;6.690;2023-02-28T01:12:24;102648.34;;;4.73;52.27
53858;BME280;39763;51.188;6.690;2023-02-28T01:13:55;102645.66;;;4.70;52.05
53858;BME280;39763;51.188;6.690;2023-02-28T01:15:27;102636.06;;;4.67;52.29
53858;BME280;39763;51.188;6.690;2023-02-28T01:16:58;102636.06;;;4.67;52.07
53858;BME280;39763;51.188;6.690;2023-02-28T01:18:30;102642.03;;;4.63;51.82
53858;BME280;39763;51.188;6.690;2023-02-28T01:20:02;102639.41;;;4.61;51.89
53858;BME280;39763;51.188;6.690;2023-02-28T01:21:34;102642.84;;;4.60;52.58
53858;BME280;39763;51.188;6.690;2023-02-28T01:23:06;102639.28;;;4.55;51.93
53858;BME280;39763;51.188;6.690;2023-02-28T01:24:38;102639.28;;;4.55;52.15
53858;BME280;39763;51.188;6.690;2023-02-28T01:26:13;102643.56;;;4.53;52.17
53858;BME280;39763;51.188;6.690;2023-02-28T01:27:45;102640.97;;;4.53;51.96
53858;BME280;39763;51.188;6.690;2023-02-28T01:29:16;102642.69;;;4.53;51.95
53858;BME280;39763;51.188;6.690;2023-02-28T01:30:49;102638.38;;;4.53;51.75
53858;BME280;39763;51.188;6.690;2023-02-28T01:32:21;102639.28;;;4.55;52.07
53858;BME280;39763;51.188;6.690;2023-02-28T01:33:54;102635.81;;;4.55;51.84
53858;BME280;39763;51.188;6.690;2023-02-28T01:35:25;102635.81;;;4.55;51.58
53858;BME280;39763;51.188;6.690;2023-02-28T01:36:58;102641.00;;;4.55;51.97
53858;BME280;39763;51.188;6.690;2023-02-28T01:38:30;102637.44;;;4.51;51.96
53858;BME280;39763;51.188;6.690;2023-02-28T01:40:01;102634.84;;;4.51;52.21
53858;BME280;39763;51.188;6.690;2023-02-28T01:41:35;102643.50;;;4.50;52.00
53858;BME280;39763;51.188;6.690;2023-02-28T01:43:09;102639.19;;;4.51;52.00
53858;BME280;39763;51.188;6.690;2023-02-28T01:44:56;102636.53;;;4.49;51.68
53858;BME280;39763;51.188;6.690;2023-02-28T01:46:29;102641.75;;;4.49;51.76
53858;BME280;39763;51.188;6.690;2023-02-28T01:48:02;102640.78;;;4.44;52.10
53858;BME280;39763;51.188;6.690;2023-02-28T01:49:35;102637.25;;;4.42;51.73
53858;BME280;39763;51.188;6.690;2023-02-28T01:51:07;102631.19;;;4.42;51.87
53858;BME280;39763;51.188;6.690;2023-02-28T01:52:40;102626.78;;;4.39;51.86
53858;BME280;39763;51.188;6.690;2023-02-28T01:54:14;102635.50;;;4.41;52.37
53858;BME280;39763;51.188;6.690;2023-02-28T01:55:48;102630.31;;;4.41;51.93
53858;BME280;39763;51.188;6.690;2023-02-28T01:57:22;102627.78;;;4.44;51.93
53858;BME280;39763;51.188;6.690;2023-02-28T01:58:55;102625.13;;;4.43;51.93
53858;BME280;39763;51.188;6.690;2023-02-28T02:00:27;102634.69;;;4.45;52.11
53858;BME280;39763;51.188;6.690;2023-02-28T02:02:00;102628.66;;;4.45;52.07
53858;BME280;39763;51.188;6.690;2023-02-28T02:03:32;102632.09;;;4.45;52.06
53858;BME280;39763;51.188;6.690;2023-02-28T02:05:07;102632.13;;;4.47;52.41
53858;BME280;39763;51.188;6.690;2023-02-28T02:06:42;102635.59;;;4.46;52.18
53858;BME280;39763;51.188;6.690;2023-02-28T02:08:16;102634.66;;;4.42;52.48
53858;BME280;39763;51.188;6.690;2023-02-28T02:09:48;102623.19;;;4.34;52.10
53858;BME280;39763;51.188;6.690;2023-02-28T02:11:20;102629.19;;;4.30;52.60
53858;BME280;39763;51.188;6.690;2023-02-28T02:13:02;102621.19;;;4.22;53.01
53858;BME280;39763;51.188;6.690;2023-02-28T02:14:40;102629.66;;;4.14;53.14
53858;BME280;39763;51.188;6.690;2023-02-28T02:16:18;102632.03;;;4.05;53.53
53858;BME280;39763;51.188;6.690;2023-02-28T02:17:52;102627.53;;;3.98;53.87
53858;BME280;39763;51.188;6.690;2023-02-28T02:19:33;102625.53;;;3.87;54.63
53858;BME280;39763;51.188;6.690;2023-02-28T02:24:58;102629.41;;;3.69;55.50
53858;BME280;39763;51.188;6.690;2023-02-28T02:26:40;102629.22;;;3.61;55.64
53858;BME280;39763;51.188;6.690;2023-02-28T02:30:10;102628.19;;;3.54;56.18
53858;BME280;39763;51.188;6.690;2023-02-28T02:31:55;102630.78;;;3.54;56.20
53858;BME280;39763;51.188;6.690;2023-02-28T02:33:42;102627.31;;;3.54;56.43
53858;BME280;39763;51.188;6.690;2023-02-28T02:35:19;102622.91;;;3.51;56.15
53858;BME280;39763;51.188;6.690;2023-02-28T02:36:57;102623.78;;;3.52;56.38
53858;BME280;39763;51.188;6.690;2023-02-28T02:38:32;102621.94;;;3.48;56.60
53858;BME280;39763;51.188;6.690;2023-02-28T02:40:08;102624.44;;;3.45;56.65
53858;BME280;39763;51.188;6.690;2023-02-28T02:41:45;102620.88;;;3.40;56.73
53858;BME280;39763;51.188;6.690;2023-02-28T02:43:19;102615.56;;;3.35;57.16
53858;BME280;39763;51.188;6.690;2023-02-28T02:44:53;102616.47;;;3.37;57.21
53858;BME280;39763;51.188;6.690;2023-02-28T02:46:28;102611.28;;;3.37;57.14
53858;BME280;39763;51.188;6.690;2023-02-28T02:48:03;102605.97;;;3.33;57.41
53858;BME280;39763;51.188;6.690;2023-02-28T02:49:36;102605.00;;;3.29;57.48
53858;BME280;39763;51.188;6.690;2023-02-28T02:51:12;102610.97;;;3.27;57.54
53858;BME280;39763;51.188;6.690;2023-02-28T02:52:47;102609.25;;;3.27;57.50
53858;BME280;39763;51.188;6.690;2023-02-28T02:54:21;102614.50;;;3.29;57.62
53858;BME280;39763;51.188;6.690;2023-02-28T02:55:53;102611.94;;;3.30;57.53
53858;BME280;39763;51.188;6.690;2023-02-28T02:57:30;102610.13;;;3.28;57.50
53858;BME280;39763;51.188;6.690;2023-02-28T02:59:05;102604.06;;;3.26;57.80
53858;BME280;39763;51.188;6.690;2023-02-28T03:00:39;102610.00;;;3.22;57.89
53858;BME280;39763;51.188;6.690;2023-02-28T03:02:14;102610.78;;;3.19;57.81
53858;BME280;39763;51.188;6.690;2023-02-28T03:03:46;102600.47;;;3.22;57.87
53858;BME280;39763;51.188;6.690;2023-02-28T03:05:18;102611.84;;;3.26;57.88
53858;BME280;39763;51.188;6.690;2023-02-28T03:06:52;102612.81;;;3.31;57.78
53858;BME280;39763;51.188;6.690;2023-02-28T03:08:28;102616.31;;;3.31;57.78
53858;BME280;39763;51.188;6.690;2023-02-28T03:10:00;102607.72;;;3.34;57.97
53858;BME280;39763;51.188;6.690;2023-02-28T03:11:32;102612.91;;;3.34;57.94
53858;BME280;39763;51.188;6.690;2023-02-28T03:13:17;102607.66;;;3.32;57.83
53858;BME280;39763;51.188;6.690;2023-02-28T03:14:55;102612.81;;;3.31;57.96
53858;BME280;39763;51.188;6.690;2023-02-28T03:16:34;102607.66;;;3.32;57.84
53858;BME280;39763;51.188;6.690;2023-02-28T03:18:09;102611.91;;;3.29;58.01
53858;BME280;39763;51.188;6.690;2023-02-28T03:19:45;102605.78;;;3.25;58.11
53858;BME280;39763;51.188;6.690;2023-02-28T03:21:21;102610.88;;;3.22;58.03
53858;BME280;39763;51.188;6.690;2023-02-28T03:22:59;102611.53;;;3.15;58.44
53858;BME280;39763;51.188;6.690;2023-02-28T03:24:34;102614.91;;;3.11;58.71
53858;BME280;39763;51.188;6.690;2023-02-28T03:26:12;102610.47;;;3.07;59.04
53858;BME280;39763;51.188;6.690;2023-02-28T03:27:49;102609.38;;;3.00;58.89
53858;BME280;39763;51.188;6.690;2023-02-28T03:29:26;102612.91;;;3.02;59.36
53858;BME280;39763;51.188;6.690;2023-02-28T03:31:00;102606.88;;;3.03;59.23
53858;BME280;39763;51.188;6.690;2023-02-28T03:32:35;102603.41;;;3.03;59.25
53858;BME280;39763;51.188;6.690;2023-02-28T03:34:08;102598.16;;;3.01;59.44
53858;BME280;39763;51.188;6.690;2023-02-28T03:35:42;102598.03;;;2.95;59.93
53858;BME280;39763;51.188;6.690;2023-02-28T03:37:16;102602.16;;;2.89;60.01
53858;BME280;39763;51.188;6.690;2023-02-28T03:38:53;102601.34;;;2.91;59.98
53858;BME280;39763;51.188;6.690;2023-02-28T03:40:27;102604.88;;;2.93;59.61
53858;BME280;39763;51.188;6.690;2023-02-28T03:42:02;102599.78;;;2.96;59.53
53858;BME280;39763;51.188;6.690;2023-02-28T03:43:35;102605.88;;;2.98;59.95
53858;BME280;39763;51.188;6.690;2023-02-28T03:45:10;102604.00;;;2.93;59.64
53858;BME280;39763;51.188;6.690;2023-02-28T03:46:46;102610.81;;;2.89;59.86
53858;BME280;39763;51.188;6.690;2023-02-28T03:48:21;102603.72;;;2.83;60.05
53858;BME280;39763;51.188;6.690;2023-02-28T03:49:55;102608.88;;;2.82;60.40
53858;BME280;39763;51.188;6.690;2023-02-28T03:51:29;102607.88;;;2.77;60.02
53858;BME280;39763;51.188;6.690;2023-02-28T03:53:02;102612.88;;;2.71;59.84
53858;BME280;39763;51.188;6.690;2023-02-28T03:54:38;102607.59;;;2.68;60.49
53858;BME280;39763;51.188;6.690;2023-02-28T03:56:13;102605.75;;;2.64;60.07
53858;BME280;39763;51.188;6.690;2023-02-28T03:57:50;102614.28;;;2.60;60.19
53858;BME280;39763;51.188;6.690;2023-02-28T03:59:25;102616.09;;;2.62;60.00
53858;BME280;39763;51.188;6.690;2023-02-28T04:01:01;102607.22;;;2.56;60.52
53858;BME280;39763;51.188;6.690;2023-02-28T04:02:39;102616.63;;;2.51;60.68
53858;BME280;39763;51.188;6.690;2023-02-28T04:04:11;102619.28;;;2.54;60.31
53858;BME280;39763;51.188;6.690;2023-02-28T04:05:47;102621.09;;;2.56;59.78
53858;BME280;39763;51.188;6.690;2023-02-28T04:07:20;102622.00;;;2.58;59.91
53858;BME280;39763;51.188;6.690;2023-02-28T04:08:54;102620.09;;;2.53;59.92
53858;BME280;39763;51.188;6.690;2023-02-28T04:10:27;102622.69;;;2.53;59.73
53858;BME280;39763;51.188;6.690;2023-02-28T04:11:59;102614.06;;;2.52;59.68
53858;BME280;39763;51.188;6.690;2023-02-28T04:13:30;102621.88;;;2.54;60.14
53858;BME280;39763;51.188;6.690;2023-02-28T04:15:04;102625.44;;;2.57;59.64
53858;BME280;39763;51.188;6.690;2023-02-28T04:16:37;102622.69;;;2.51;59.85
53858;BME280;39763;51.188;6.690;2023-02-28T04:18:09;102618.38;;;2.53;59.90
53858;BME280;39763;51.188;6.690;2023-02-28T04:19:41;102614.09;;;2.54;59.99
53858;BME280;39763;51.188;6.690;2023-02-28T04:21:12;102625.28;;;2.53;59.55
53858;BME280;39763;51.188;6.690;2023-02-28T04:22:44;102617.44;;;2.50;59.90
53858;BME280;39763;51.188;6.690;2023-02-28T04:24:16;102626.00;;;2.47;59.65
53858;BME280;39763;51.188;6.690;2023-02-28T04:25:49;102620.03;;;2.50;59.80
53858;BME280;39763;51.188;6.690;2023-02-28T04:27:22;102634.00;;;2.55;59.75
53858;BME280;39763;51.188;6.690;2023-02-28T04:28:53;102623.69;;;2.56;59.58
53858;BME280;39763;51.188;6.690;2023-02-28T04:30:25;102623.72;;;2.58;59.78
53858;BME280;39763;51.188;6.690;2023-02-28T04:31:57;102628.91;;;2.58;59.56
53858;BME280;39763;51.188;6.690;2023-02-28T04:33:31;102624.47;;;2.54;59.51
53858;BME280;39763;51.188;6.690;2023-02-28T04:35:03;102622.63;;;2.50;59.61
53858;BME280;39763;51.188;6.690;2023-02-28T04:36:34;102629.66;;;2.54;59.96
53858;BME280;39763;51.188;6.690;2023-02-28T04:38:06;102627.88;;;2.53;59.86
53858;BME280;39763;51.188;6.690;2023-02-28T04:39:38;102630.47;;;2.51;59.69
53858;BME280;39763;51.188;6.690;2023-02-28T04:41:11;102632.91;;;2.46;59.60
53858;BME280;39763;51.188;6.690;2023-02-28T04:42:43;102633.00;;;2.50;59.48
53858;BME280;39763;51.188;6.690;2023-02-28T04:44:15;102630.41;;;2.50;59.89
53858;BME280;39763;51.188;6.690;2023-02-28T04:45:47;102633.88;;;2.50;59.97
53858;BME280;39763;51.188;6.690;2023-02-28T04:47:18;102627.81;;;2.50;59.64
53858;BME280;39763;51.188;6.690;2023-02-28T04:48:50;102631.25;;;2.48;59.71
53858;BME280;39763;51.188;6.690;2023-02-28T04:50:21;102626.88;;;2.47;59.95
53858;BME280;39763;51.188;6.690;2023-02-28T04:51:53;102627.72;;;2.46;59.55
53858;BME280;39763;51.188;6.690;2023-02-28T04:53:25;102627.63;;;2.43;59.86
53858;BME280;39763;51.188;6.690;2023-02-28T04:54:56;102635.41;;;2.43;59.85
53858;BME280;39763;51.188;6.690;2023-02-28T04:56:29;102637.06;;;2.41;59.31
53858;BME280;39763;51.188;6.690;2023-02-28T04:58:01;102631.09;;;2.44;59.74
53858;BME280;39763;51.188;6.690;2023-02-28T04:59:32;102640.84;;;2.51;59.27
53858;BME280;39763;51.188;6.690;2023-02-28T05:01:04;102634.00;;;2.55;59.03
53858;BME280;39763;51.188;6.690;2023-02-28T05:02:44;102640.06;;;2.55;59.24
53858;BME280;39763;51.188;6.690;2023-02-28T05:04:15;102637.41;;;2.52;58.83
53858;BME280;39763;51.188;6.690;2023-02-28T05:05:47;102636.59;;;2.55;58.79
53858;BME280;39763;51.188;6.690;2023-02-28T05:07:19;102637.56;;;2.58;58.57
53858;BME280;39763;51.188;6.690;2023-02-28T05:08:51;102642.97;;;2.64;58.63
53858;BME280;39763;51.188;6.690;2023-02-28T05:10:23;102639.59;;;2.67;58.73
53858;BME280;39763;51.188;6.690;2023-02-28T05:11:56;102638.75;;;2.69;58.88
53858;BME280;39763;51.188;6.690;2023-02-28T05:13:28;102643.16;;;2.72;58.34
53858;BME280;39763;51.188;6.690;2023-02-28T05:15:00;102641.59;;;2.77;58.10
53858;BME280;39763;51.188;6.690;2023-02-28T05:16:33;102642.47;;;2.77;58.57
53858;BME280;39763;51.188;6.690;2023-02-28T05:18:04;102642.53;;;2.79;57.83
53858;BME280;39763;51.188;6.690;2023-02-28T05:19:36;102635.69;;;2.81;57.43
53858;BME280;39763;51.188;6.690;2023-02-28T05:21:17;102631.31;;;2.80;57.68
53858;BME280;39763;51.188;6.690;2023-02-28T05:22:55;102635.59;;;2.78;57.84
53858;BME280;39763;51.188;6.690;2023-02-28T05:24:28;102639.94;;;2.79;57.69
53858;BME280;39763;51.188;6.690;2023-02-28T05:25:59;102640.06;;;2.83;57.37
53858;BME280;39763;51.188;6.690;2023-02-28T05:27:32;102633.19;;;2.86;57.25
53858;BME280;39763;51.188;6.690;2023-02-28T05:29:04;102636.63;;;2.84;57.05
53858;BME280;39763;51.188;6.690;2023-02-28T05:30:36;102637.34;;;2.79;56.88
53858;BME280;39763;51.188;6.690;2023-02-28T05:32:08;102642.44;;;2.76;57.00
53858;BME280;39763;51.188;6.690;2023-02-28T05:33:41;102635.44;;;2.73;56.61
53858;BME280;39763;51.188;6.690;2023-02-28T05:35:18;102636.28;;;2.72;56.54
53858;BME280;39763;51.188;6.690;2023-02-28T05:36:53;102638.06;;;2.75;56.76
53858;BME280;39763;51.188;6.690;2023-02-28T05:38:25;102648.50;;;2.76;56.63
53858;BME280;39763;51.188;6.690;2023-02-28T05:39:56;102646.84;;;2.78;56.34
53858;BME280;39763;51.188;6.690;2023-02-28T05:41:28;102647.78;;;2.82;56.50
53858;BME280;39763;51.188;6.690;2023-02-28T05:43:01;102646.22;;;2.87;56.78
53858;BME280;39763;51.188;6.690;2023-02-28T05:44:33;102646.41;;;2.93;56.41
53858;BME280;39763;51.188;6.690;2023-02-28T05:46:05;102642.25;;;3.00;56.14
53858;BME280;39763;51.188;6.690;2023-02-28T05:47:37;102649.34;;;3.05;56.06
53858;BME280;39763;51.188;6.690;2023-02-28T05:49:08;102650.28;;;3.07;56.01
53858;BME280;39763;51.188;6.690;2023-02-28T05:50:40;102649.34;;;3.05;55.98
53858;BME280;39763;51.188;6.690;2023-02-28T05:52:14;102655.28;;;3.01;55.88
53858;BME280;39763;51.188;6.690;2023-02-28T05:53:46;102659.53;;;2.99;55.83
53858;BME280;39763;51.188;6.690;2023-02-28T05:55:19;102650.09;;;3.01;55.56
53858;BME280;39763;51.188;6.690;2023-02-28T05:56:51;102659.63;;;3.02;55.60
53858;BME280;39763;51.188;6.690;2023-02-28T05:58:25;102659.53;;;2.99;55.66
53858;BME280;39763;51.188;6.690;2023-02-28T06:00:00;102651.59;;;2.93;55.63
53858;BME280;39763;51.188;6.690;2023-02-28T06:01:43;102658.41;;;2.90;55.61
53858;BME280;39763;51.188;6.690;2023-02-28T06:03:21;102661.72;;;2.86;55.67
53858;BME280;39763;51.188;6.690;2023-02-28T06:04:52;102658.88;;;2.76;55.87
53858;BME280;39763;51.188;6.690;2023-02-28T06:06:24;102656.19;;;2.73;55.99
53858;BME280;39763;51.188;6.690;2023-02-28T06:07:56;102654.34;;;2.69;55.81
53858;BME280;39763;51.188;6.690;2023-02-28T06:09:27;102656.81;;;2.65;56.19
53858;BME280;39763;51.188;6.690;2023-02-28T06:11:02;102661.84;;;2.60;55.81
53858;BME280;39763;51.188;6.690;2023-02-28T06:12:34;102672.06;;;2.56;56.05
53858;BME280;39763;51.188;6.690;2023-02-28T06:14:07;102668.47;;;2.51;56.51
53858;BME280;39763;51.188;6.690;2023-02-28T06:15:39;102673.56;;;2.47;56.41
53858;BME280;39763;51.188;6.690;2023-02-28T06:17:11;102664.03;;;2.46;56.14
53858;BME280;39763;51.188;6.690;2023-02-28T06:18:42;102683.00;;;2.45;56.53
53858;BME280;39763;51.188;6.690;2023-02-28T06:20:14;102668.19;;;2.41;56.22
53858;BME280;39763;51.188;6.690;2023-02-28T06:21:47;102681.09;;;2.40;56.29
53858;BME280;39763;51.188;6.690;2023-02-28T06:23:20;102676.78;;;2.40;56.42
53858;BME280;39763;51.188;6.690;2023-02-28T06:24:52;102681.03;;;2.38;56.72
53858;BME280;39763;51.188;6.690;2023-02-28T06:26:24;102677.63;;;2.39;57.17
53858;BME280;39763;51.188;6.690;2023-02-28T06:27:56;102679.31;;;2.37;57.14
53858;BME280;39763;51.188;6.690;2023-02-28T06:29:28;102683.56;;;2.35;57.03
53858;BME280;39763;51.188;6.690;2023-02-28T06:31:05;102690.47;;;2.35;57.52
53858;BME280;39763;51.188;6.690;2023-02-28T06:32:38;102681.66;;;2.30;56.98
53858;BME280;39763;51.188;6.690;2023-02-28T06:34:09;102683.19;;;2.25;57.04
53858;BME280;39763;51.188;6.690;2023-02-28T06:35:43;102690.03;;;2.21;57.39
53858;BME280;39763;51.188;6.690;2023-02-28T06:37:15;102696.09;;;2.23;57.13
53858;BME280;39763;51.188;6.690;2023-02-28T06:38:47;102690.09;;;2.24;57.27
53858;BME280;39763;51.188;6.690;2023-02-28T06:40:22;102686.59;;;2.22;56.95
53858;BME280;39763;51.188;6.690;2023-02-28T06:41:54;102690.16;;;2.26;56.79
53858;BME280;39763;51.188;6.690;2023-02-28T06:43:27;102691.78;;;2.22;57.56
53858;BME280;39763;51.188;6.690;2023-02-28T06:45:01;102688.31;;;2.23;56.95
53858;BME280;39763;51.188;6.690;2023-02-28T06:46:34;102696.22;;;2.26;57.27
53858;BME280;39763;51.188;6.690;2023-02-28T06:48:06;102696.22;;;2.26;56.69
53858;BME280;39763;51.188;6.690;2023-02-28T06:49:38;102688.50;;;2.28;56.94
53858;BME280;39763;51.188;6.690;2023-02-28T06:51:14;102699.84;;;2.31;56.90
53858;BME280;39763;51.188;6.690;2023-02-28T06:52:46;102695.50;;;2.30;56.82
53858;BME280;39763;51.188;6.690;2023-02-28T06:54:18;102699.00;;;2.32;55.98
53858;BME280;39763;51.188;6.690;2023-02-28T06:55:49;102692.16;;;2.34;56.18
53858;BME280;39763;51.188;6.690;2023-02-28T06:57:21;102707.84;;;2.39;55.43
53858;BME280;39763;51.188;6.690;2023-02-28T06:58:53;102703.53;;;2.39;55.82
53858;BME280;39763;51.188;6.690;2023-02-28T07:00:26;102699.34;;;2.43;55.51
53858;BME280;39763;51.188;6.690;2023-02-28T07:02:00;102696.06;;;2.48;55.30
53858;BME280;39763;51.188;6.690;2023-02-28T07:03:34;102701.31;;;2.50;55.26
53858;BME280;39763;51.188;6.690;2023-02-28T07:05:06;102702.19;;;2.51;55.29
53858;BME280;39763;51.188;6.690;2023-02-28T07:06:38;102701.44;;;2.55;54.83
53858;BME280;39763;51.188;6.690;2023-02-28T07:08:10;102709.38;;;2.59;54.31
53858;BME280;39763;51.188;6.690;2023-02-28T07:09:44;102710.06;;;2.54;54.13
53858;BME280;39763;51.188;6.690;2023-02-28T07:11:16;102707.66;;;2.60;54.46
53858;BME280;39763;51.188;6.690;2023-02-28T07:12:47;102710.41;;;2.64;54.16
53858;BME280;39763;51.188;6.690;2023-02-28T07:14:19;102699.31;;;2.70;54.23
53858;BME280;39763;51.188;6.690;2023-02-28T07:15:55;102702.84;;;2.72;53.87
53858;BME280;39763;51.188;6.690;2023-02-28T07:17:26;102715.97;;;2.76;53.51
53858;BME280;39763;51.188;6.690;2023-02-28T07:18:58;102702.25;;;2.80;53.41
53858;BME280;39763;51.188;6.690;2023-02-28T07:20:30;102706.72;;;2.86;53.15
53858;BME280;39763;51.188;6.690;2023-02-28T07:22:03;102705.22;;;2.93;53.06
53858;BME280;39763;51.188;6.690;2023-02-28T07:23:36;102704.53;;;3.00;53.05
53858;BME280;39763;51.188;6.690;2023-02-28T07:25:09;102705.66;;;3.08;53.29
53858;BME280;39763;51.188;6.690;2023-02-28T07:26:41;102704.91;;;3.12;52.73
53858;BME280;39763;51.188;6.690;2023-02-28T07:28:13;102704.91;;;3.12;52.64
53858;BME280;39763;51.188;6.690;2023-02-28T07:29:45;102707.63;;;3.16;52.17
53858;BME280;39763;51.188;6.690;2023-02-28T07:31:20;102700.88;;;3.22;52.04
53858;BME280;39763;51.188;6.690;2023-02-28T07:32:52;102700.13;;;3.26;51.71
53858;BME280;39763;51.188;6.690;2023-02-28T07:34:25;102698.47;;;3.29;51.36
53858;BME280;39763;51.188;6.690;2023-02-28T07:35:59;102708.22;;;3.36;50.97
53858;BME280;39763;51.188;6.690;2023-02-28T07:37:31;102703.25;;;3.45;50.77
53858;BME280;39763;51.188;6.690;2023-02-28T07:39:07;102707.81;;;3.52;50.24
53858;BME280;39763;51.188;6.690;2023-02-28T07:40:40;102697.50;;;3.57;49.54
53858;BME280;39763;51.188;6.690;2023-02-28T07:42:12;102705.41;;;3.60;48.79
53858;BME280;39763;51.188;6.690;2023-02-28T07:43:44;102704.69;;;3.66;48.42
53858;BME280;39763;51.188;6.690;2023-02-28T07:45:16;102703.91;;;3.68;48.37
53858;BME280;39763;51.188;6.690;2023-02-28T07:46:50;102712.63;;;3.72;47.55
53858;BME280;39763;51.188;6.690;2023-02-28T07:48:22;102710.25;;;3.79;47.56
53858;BME280;39763;51.188;6.690;2023-02-28T07:49:55;102714.75;;;3.86;47.32
53858;BME280;39763;51.188;6.690;2023-02-28T07:51:26;102719.25;;;3.92;47.12
53858;BME280;39763;51.188;6.690;2023-02-28T07:52:59;102713.28;;;3.96;46.64
53858;BME280;39763;51.188;6.690;2023-02-28T07:54:31;102717.00;;;4.06;46.88
53858;BME280;39763;51.188;6.690;2023-02-28T07:56:03;102716.38;;;4.14;46.82
53858;BME280;39763;51.188;6.690;2023-02-28T07:57:35;102715.63;;;4.20;46.14
53858;BME280;39763;51.188;6.690;2023-02-28T07:59:07;102718.13;;;4.17;45.45
53858;BME280;39763;51.188;6.690;2023-02-28T08:00:39;102716.41;;;4.17;45.53
53858;BME280;39763;51.188;6.690;2023-02-28T08:02:12;102716.50;;;4.20;45.49
53858;BME280;39763;51.188;6.690;2023-02-28T08:03:45;102730.53;;;4.27;45.29
53858;BME280;39763;51.188;6.690;2023-02-28T08:05:16;102712.44;;;4.32;44.77
53858;BME280;39763;51.188;6.690;2023-02-28T08:06:52;102714.28;;;4.36;44.95
53858;BME280;39763;51.188;6.690;2023-02-28T08:08:24;102721.31;;;4.40;44.61
53858;BME280;39763;51.188;6.690;2023-02-28T08:10:02;102720.56;;;4.44;44.43
53858;BME280;39763;51.188;6.690;2023-02-28T08:11:34;102712.06;;;4.52;44.35
53858;BME280;39763;51.188;6.690;2023-02-28T08:13:09;102724.25;;;4.53;43.69
53858;BME280;39763;51.188;6.690;2023-02-28T08:14:41;102721.72;;;4.56;43.11
53858;BME280;39763;51.188;6.690;2023-02-28T08:16:13;102720.06;;;4.61;43.54
53858;BME280;39763;51.188;6.690;2023-02-28T08:17:54;102715.88;;;4.67;43.27
53858;BME280;39763;51.188;6.690;2023-02-28T08:19:27;102722.16;;;4.75;43.59